Time;durP1;ratioP1;P1;durP2;ratioP2;P2;SDS_P1;SDS_P2;PMS_P1;PMS_P2;Temp;Humidity;BMP_temperature;BMP_pressure;BME280_temperature;BME280_humidity;BME280_pressure;Samples;Min_cycle;Max_cycle;Signal;HPM_P1;HPM_P2
2021/10/26 00:00:46;;;;;;;3.67;2.08;;;18.70;82.00;;;;;;5051740;28;20044;-79
2021/10/26 00:03:12;;;;;;;3.95;1.92;;;18.70;82.10;;;;;;5049994;28;20120;-79
2021/10/26 00:05:37;;;;;;;5.57;2.15;;;18.70;82.20;;;;;;5051315;28;20033;-78
2021/10/26 00:08:03;;;;;;;4.15;1.73;;;18.70;82.30;;;;;;5051077;28;20078;-78
2021/10/26 00:10:29;;;;;;;3.78;1.98;;;18.70;82.20;;;;;;5051229;28;20021;-78
2021/10/26 00:12:55;;;;;;;3.47;1.95;;;18.70;82.40;;;;;;5049848;28;20104;-78
2021/10/26 00:15:20;;;;;;;3.10;2.03;;;18.60;82.40;;;;;;5051417;28;20120;-78
2021/10/26 00:17:46;;;;;;;4.68;2.20;;;18.60;82.30;;;;;;5051837;28;20029;-79
2021/10/26 00:20:12;;;;;;;6.20;2.53;;;18.60;82.30;;;;;;5050840;28;20053;-78
2021/10/26 00:22:37;;;;;;;2.92;2.10;;;18.60;82.30;;;;;;5050933;28;20036;-78
2021/10/26 00:25:04;;;;;;;3.65;2.17;;;18.60;82.00;;;;;;5050879;28;20099;-78
2021/10/26 00:27:29;;;;;;;3.08;2.00;;;18.60;82.00;;;;;;5050998;28;20028;-78
2021/10/26 00:29:55;;;;;;;3.83;1.83;;;18.60;81.90;;;;;;5050891;28;20021;-78
2021/10/26 00:32:21;;;;;;;4.20;2.22;;;18.60;81.80;;;;;;5051052;28;20031;-77
2021/10/26 00:34:46;;;;;;;3.33;2.10;;;18.60;81.80;;;;;;5051248;28;20061;-78
2021/10/26 00:37:13;;;;;;;4.85;2.42;;;18.60;81.60;;;;;;5050728;28;20029;-78
2021/10/26 00:39:39;;;;;;;3.65;2.05;;;18.50;81.40;;;;;;5050665;28;20028;-78
2021/10/26 00:42:05;;;;;;;3.53;1.83;;;18.50;81.60;;;;;;5050590;28;20033;-78
2021/10/26 00:44:31;;;;;;;4.32;2.08;;;18.50;81.50;;;;;;5050945;28;20074;-77
2021/10/26 00:46:57;;;;;;;3.72;2.00;;;18.50;82.00;;;;;;5050249;28;20502;-78
2021/10/26 00:49:23;;;;;;;4.32;2.20;;;18.50;81.50;;;;;;5050673;28;20025;-77
2021/10/26 00:51:49;;;;;;;5.20;2.17;;;18.50;81.30;;;;;;5051007;28;20028;-78
2021/10/26 00:54:15;;;;;;;4.80;2.17;;;18.50;81.50;;;;;;5050471;28;20029;-77
2021/10/26 00:56:41;;;;;;;6.10;2.08;;;18.50;81.30;;;;;;5050481;28;20426;-78
2021/10/26 00:59:07;;;;;;;4.40;1.85;;;18.50;81.20;;;;;;5049663;28;20029;-77
2021/10/26 01:01:32;;;;;;;3.97;1.85;;;18.50;81.20;;;;;;5050482;28;20108;-78
2021/10/26 01:03:58;;;;;;;5.90;1.77;;;18.40;81.10;;;;;;5050294;28;20029;-79
2021/10/26 01:06:24;;;;;;;3.47;1.80;;;18.40;81.00;;;;;;5050431;28;20029;-78
2021/10/26 01:08:50;;;;;;;3.92;2.00;;;18.40;81.80;;;;;;5050707;28;20044;-78
2021/10/26 01:11:17;;;;;;;4.70;2.30;;;18.40;81.00;;;;;;5050583;28;20063;-78
2021/10/26 01:13:45;;;;;;;4.53;1.95;;;18.40;81.00;;;;;;5050331;28;20021;-78
2021/10/26 01:16:10;;;;;;;4.35;1.77;;;18.40;81.00;;;;;;5050139;28;20406;-80
2021/10/26 01:18:36;;;;;;;4.25;2.25;;;18.40;81.00;;;;;;5050207;28;20094;-78
2021/10/26 01:21:02;;;;;;;4.70;2.05;;;18.30;81.00;;;;;;5049924;28;20029;-78
2021/10/26 01:23:28;;;;;;;3.70;1.77;;;18.30;80.90;;;;;;5048882;28;20116;-80
2021/10/26 01:25:54;;;;;;;3.53;1.90;;;18.30;80.90;;;;;;5049706;28;20477;-78
2021/10/26 01:28:20;;;;;;;4.93;2.33;;;18.30;80.80;;;;;;5050437;28;20025;-78
2021/10/26 01:30:46;;;;;;;4.43;2.00;;;18.30;81.00;;;;;;5050408;28;20112;-79
2021/10/26 01:33:12;;;;;;;3.45;1.83;;;18.30;80.90;;;;;;5049752;28;20573;-78
2021/10/26 01:35:38;;;;;;;2.47;1.50;;;18.30;80.80;;;;;;5049907;28;20075;-79
2021/10/26 01:38:05;;;;;;;4.75;1.90;;;18.30;80.90;;;;;;5049675;28;20025;-79
2021/10/26 01:40:31;;;;;;;3.28;1.98;;;18.20;80.90;;;;;;5048359;28;20040;-79
2021/10/26 01:42:57;;;;;;;4.30;1.95;;;18.20;80.80;;;;;;5048490;28;20040;-80
2021/10/26 01:45:23;;;;;;;3.42;1.80;;;18.20;80.70;;;;;;5049521;28;20101;-78
2021/10/26 01:47:48;;;;;;;3.53;1.98;;;18.20;80.70;;;;;;5050039;28;20062;-79
2021/10/26 01:50:17;;;;;;;3.10;1.80;;;18.20;80.80;;;;;;5049433;28;20027;-79
2021/10/26 01:52:43;;;;;;;4.40;1.75;;;18.10;80.70;;;;;;5049629;28;20073;-79
2021/10/26 01:55:10;;;;;;;2.60;1.40;;;18.10;80.70;;;;;;5049310;28;20062;-80
2021/10/26 01:57:36;;;;;;;4.20;1.70;;;18.10;80.70;;;;;;5049705;28;20074;-80
2021/10/26 02:00:07;;;;;;;3.33;1.70;;;18.10;80.70;;;;;;5049349;28;20033;-80
2021/10/26 02:02:32;;;;;;;5.35;1.67;;;18.20;80.70;;;;;;5049537;28;20378;-81
2021/10/26 02:04:58;;;;;;;3.80;1.50;;;18.20;80.60;;;;;;5049287;28;20029;-80
2021/10/26 02:07:24;;;;;;;4.05;1.77;;;18.10;80.60;;;;;;5049598;28;20025;-80
2021/10/26 02:09:49;;;;;;;3.60;1.77;;;18.10;80.60;;;;;;5049006;28;20032;-80
2021/10/26 02:12:15;;;;;;;4.47;1.67;;;18.10;80.50;;;;;;5047516;28;20028;-79
2021/10/26 02:14:41;;;;;;;3.85;1.70;;;18.10;80.60;;;;;;5049364;28;20059;-80
2021/10/26 02:17:07;;;;;;;3.60;1.65;;;18.10;80.50;;;;;;5049082;28;20013;-79
2021/10/26 02:19:34;;;;;;;3.03;1.50;;;18.10;80.50;;;;;;5049318;28;20036;-80
2021/10/26 02:22:00;;;;;;;4.65;1.88;;;18.10;80.60;;;;;;5047681;28;20029;-78
2021/10/26 02:24:26;;;;;;;5.65;2.30;;;18.00;80.50;;;;;;5049177;28;20522;-79
2021/10/26 02:26:52;;;;;;;2.78;1.90;;;18.00;80.30;;;;;;5048990;28;20021;-78
2021/10/26 02:29:18;;;;;;;7.72;1.80;;;18.00;80.40;;;;;;5049590;28;20029;-77
2021/10/26 02:31:44;;;;;;;4.40;1.70;;;18.00;80.30;;;;;;5049089;28;20370;-77
2021/10/26 02:34:09;;;;;;;6.47;2.30;;;18.00;80.40;;;;;;5048911;28;20025;-78
2021/10/26 02:36:35;;;;;;;3.97;1.70;;;18.00;80.40;;;;;;5049023;28;20025;-78
2021/10/26 02:39:03;;;;;;;2.83;1.77;;;18.00;80.40;;;;;;5048813;28;20017;-78
2021/10/26 02:41:29;;;;;;;2.90;1.70;;;18.00;81.00;;;;;;5048812;28;20041;-77
2021/10/26 02:43:55;;;;;;;3.17;1.75;;;18.00;80.30;;;;;;5048767;28;20044;-77
2021/10/26 02:46:20;;;;;;;3.33;1.67;;;18.00;80.30;;;;;;5048939;28;20047;-77
2021/10/26 02:48:48;;;;;;;3.40;1.60;;;18.00;80.30;;;;;;5049192;28;20023;-77
2021/10/26 02:51:14;;;;;;;3.38;2.03;;;17.90;80.10;;;;;;5048511;28;20499;-78
2021/10/26 02:53:40;;;;;;;3.85;1.45;;;17.90;80.10;;;;;;5048763;28;20016;-78
2021/10/26 02:56:05;;;;;;;3.50;1.45;;;18.00;80.20;;;;;;5048592;28;20495;-78
2021/10/26 02:58:31;;;;;;;2.58;1.38;;;17.90;80.10;;;;;;5048718;28;20021;-78
2021/10/26 03:00:57;;;;;;;3.35;1.42;;;17.90;80.20;;;;;;5048491;28;20029;-78
2021/10/26 03:03:23;;;;;;;4.75;1.50;;;17.90;80.10;;;;;;5048657;28;20513;-78
2021/10/26 03:05:49;;;;;;;2.60;1.48;;;17.90;80.10;;;;;;5048670;28;20405;-78
2021/10/26 03:08:15;;;;;;;5.45;1.67;;;17.90;80.10;;;;;;5048547;28;20033;-77
2021/10/26 03:10:41;;;;;;;3.72;1.63;;;17.80;79.90;;;;;;5048598;28;20040;-79
2021/10/26 03:13:07;;;;;;;3.55;1.40;;;17.90;80.10;;;;;;5048211;28;20017;-77
2021/10/26 03:15:32;;;;;;;3.25;1.58;;;17.90;80.10;;;;;;5048463;28;20062;-78
2021/10/26 03:17:59;;;;;;;3.88;1.77;;;17.90;80.00;;;;;;5048211;28;20029;-77
2021/10/26 03:20:24;;;;;;;3.70;1.65;;;17.80;80.00;;;;;;5048211;28;20511;-79
2021/10/26 03:22:50;;;;;;;2.72;1.45;;;17.80;80.00;;;;;;5048398;28;20100;-78
2021/10/26 03:25:16;;;;;;;3.40;1.92;;;17.80;79.90;;;;;;5048590;28;20033;-79
2021/10/26 03:27:42;;;;;;;2.33;1.05;;;17.80;79.90;;;;;;5048416;28;20017;-78
2021/10/26 03:30:09;;;;;;;2.63;1.42;;;17.80;80.00;;;;;;5048065;28;20473;-77
2021/10/26 03:32:35;;;;;;;3.30;1.38;;;17.80;80.00;;;;;;5048235;28;20025;-80
2021/10/26 03:35:01;;;;;;;3.53;1.58;;;17.80;79.90;;;;;;5047954;28;20047;-77
2021/10/26 03:37:26;;;;;;;4.65;1.40;;;17.80;79.90;;;;;;5048184;28;20500;-80
2021/10/26 03:39:56;;;;;;;2.45;1.20;;;17.80;79.70;;;;;;5047730;28;20073;-78
2021/10/26 03:42:23;;;;;;;2.42;1.15;;;17.80;79.80;;;;;;5047943;28;20408;-77
2021/10/26 03:44:49;;;;;;;2.97;1.52;;;17.80;79.80;;;;;;5048236;28;20029;-79
2021/10/26 03:47:15;;;;;;;3.47;1.20;;;17.70;79.70;;;;;;5047837;28;20108;-81
2021/10/26 03:49:41;;;;;;;3.22;1.65;;;17.70;79.60;;;;;;5047841;28;20029;-81
2021/10/26 03:52:07;;;;;;;4.28;1.25;;;17.70;79.70;;;;;;5047788;28;20485;-78
2021/10/26 03:54:32;;;;;;;2.22;1.40;;;17.70;79.70;;;;;;5047855;28;20036;-80
2021/10/26 03:56:59;;;;;;;3.95;1.52;;;17.70;79.60;;;;;;5047700;28;20119;-82
2021/10/26 03:59:30;;;;;;;3.08;1.50;;;17.70;79.60;;;;;;5047880;28;20029;-81
2021/10/26 04:01:57;;;;;;;3.00;1.38;;;17.70;79.60;;;;;;5047699;28;20029;-80
2021/10/26 04:04:22;;;;;;;3.05;1.35;;;17.70;79.70;;;;;;5047679;28;20549;-80
2021/10/26 04:06:49;;;;;;;6.38;1.77;;;17.70;79.60;;;;;;5048058;28;20029;-78
2021/10/26 04:09:20;;;;;;;2.78;1.20;;;17.70;79.50;;;;;;5047640;28;20032;-78
2021/10/26 04:11:55;;;;;;;4.15;1.83;;;17.70;79.50;;;;;;5048546;28;20025;-78
2021/10/26 04:14:21;;;;;;;4.28;1.40;;;17.70;79.50;;;;;;5047833;28;20097;-79
2021/10/26 04:16:47;;;;;;;2.75;1.80;;;17.60;79.50;;;;;;5047836;28;20532;-79
2021/10/26 04:19:13;;;;;;;5.00;1.95;;;17.60;79.50;;;;;;5047455;28;20526;-79
2021/10/26 04:21:38;;;;;;;3.28;1.40;;;17.60;79.50;;;;;;5047628;28;20380;-77
2021/10/26 04:24:04;;;;;;;3.75;1.50;;;17.60;79.40;;;;;;5047452;28;20077;-78
2021/10/26 04:26:30;;;;;;;3.05;1.30;;;17.60;79.60;;;;;;5046223;28;20112;-79
2021/10/26 04:28:56;;;;;;;2.47;1.23;;;17.60;79.40;;;;;;5047352;28;20578;-78
2021/10/26 04:31:21;;;;;;;3.53;1.40;;;17.60;79.30;;;;;;5047447;28;20037;-79
2021/10/26 04:33:47;;;;;;;2.03;1.17;;;17.60;79.30;;;;;;5048769;28;20465;-78
2021/10/26 04:36:13;;;;;;;4.15;1.77;;;17.60;79.30;;;;;;5050802;28;20029;-79
2021/10/26 04:38:39;;;;;;;3.15;1.42;;;17.60;79.30;;;;;;5049798;28;20017;-78
2021/10/26 04:41:08;;;;;;;2.45;1.30;;;17.60;79.20;;;;;;5050557;28;20033;-77
2021/10/26 04:43:35;;;;;;;3.20;1.40;;;17.60;79.30;;;;;;5050684;28;20070;-78
2021/10/26 04:46:02;;;;;;;5.07;1.75;;;17.60;79.30;;;;;;5050310;28;20120;-78
2021/10/26 04:48:28;;;;;;;4.68;1.48;;;17.60;79.30;;;;;;5050887;28;20025;-78
2021/10/26 04:50:53;;;;;;;3.30;1.40;;;17.60;79.30;;;;;;5050596;28;20549;-78
2021/10/26 04:53:20;;;;;;;3.28;1.80;;;17.60;79.10;;;;;;5050968;28;20139;-77
2021/10/26 04:55:46;;;;;;;3.75;1.48;;;17.60;79.10;;;;;;5051067;28;20066;-79
2021/10/26 04:58:12;;;;;;;2.25;1.02;;;17.60;79.00;;;;;;5050279;28;20025;-78
2021/10/26 05:00:37;;;;;;;3.55;1.30;;;17.60;78.90;;;;;;5050396;28;20033;-79
2021/10/26 05:03:03;;;;;;;2.92;1.42;;;17.60;78.90;;;;;;5050405;28;20545;-78
2021/10/26 05:05:29;;;;;;;2.90;1.55;;;17.70;79.00;;;;;;5049272;28;20025;-78
2021/10/26 05:07:55;;;;;;;4.28;1.75;;;17.70;79.00;;;;;;5050203;28;20462;-78
2021/10/26 05:10:20;;;;;;;3.03;1.90;;;17.70;78.90;;;;;;5050579;28;20028;-78
2021/10/26 05:12:46;;;;;;;3.45;1.38;;;17.70;78.90;;;;;;5050611;28;20036;-78
2021/10/26 05:15:12;;;;;;;3.60;1.42;;;17.70;78.80;;;;;;5050020;28;20039;-80
2021/10/26 05:17:39;;;;;;;2.58;1.20;;;17.80;78.90;;;;;;5050417;28;20477;-79
2021/10/26 05:20:06;;;;;;;4.72;1.52;;;17.80;78.80;;;;;;5049805;28;20033;-79
2021/10/26 05:22:32;;;;;;;3.05;1.20;;;17.80;78.90;;;;;;5050036;28;20496;-79
2021/10/26 05:24:58;;;;;;;2.95;1.00;;;17.80;78.90;;;;;;5049877;28;20166;-80
2021/10/26 05:27:24;;;;;;;3.97;1.30;;;17.80;78.80;;;;;;5050095;28;20025;-79
2021/10/26 05:29:50;;;;;;;2.67;1.00;;;17.80;78.60;;;;;;5050310;28;20133;-79
2021/10/26 05:32:16;;;;;;;3.60;1.35;;;17.80;78.60;;;;;;5050221;28;20162;-77
2021/10/26 05:34:42;;;;;;;3.85;1.27;;;17.90;78.50;;;;;;5049997;28;20021;-78
2021/10/26 05:37:10;;;;;;;3.67;1.45;;;17.90;78.40;;;;;;5049616;28;20059;-79
2021/10/26 05:39:38;;;;;;;3.33;1.30;;;17.90;78.30;;;;;;5049964;28;20041;-79
2021/10/26 05:42:04;;;;;;;2.47;1.63;;;17.90;78.20;;;;;;5049623;28;20108;-79
2021/10/26 05:44:29;;;;;;;3.33;1.25;;;17.90;78.10;;;;;;5049879;28;20017;-77
2021/10/26 05:46:55;;;;;;;3.35;1.00;;;18.00;78.20;;;;;;5049243;28;20381;-77
2021/10/26 05:49:21;;;;;;;2.28;1.27;;;18.00;78.00;;;;;;5049729;28;20537;-79
2021/10/26 05:51:46;;;;;;;3.72;1.75;;;18.00;78.00;;;;;;5050086;28;20477;-79
2021/10/26 05:54:12;;;;;;;2.97;1.40;;;18.00;77.90;;;;;;5049290;28;20081;-79
2021/10/26 05:56:38;;;;;;;2.22;1.20;;;18.00;77.80;;;;;;5049650;28;20451;-80
2021/10/26 05:59:03;;;;;;;2.45;1.20;;;18.10;77.70;;;;;;5049414;28;20117;-80
2021/10/26 06:01:29;;;;;;;2.90;1.17;;;18.10;77.60;;;;;;5048961;28;20060;-79
2021/10/26 06:03:55;;;;;;;4.22;1.48;;;18.10;77.60;;;;;;5049258;28;20100;-77
2021/10/26 06:06:21;;;;;;;2.65;0.90;;;18.10;77.50;;;;;;5049744;28;20025;-78
2021/10/26 06:08:49;;;;;;;2.70;1.40;;;18.10;77.40;;;;;;5049784;28;20021;-80
2021/10/26 06:11:18;;;;;;;4.78;1.48;;;18.20;77.50;;;;;;5047865;28;20043;-78
2021/10/26 06:13:48;;;;;;;3.10;1.25;;;18.20;77.40;;;;;;5049554;28;20036;-79
2021/10/26 06:16:13;;;;;;;3.78;1.33;;;18.20;77.40;;;;;;5049315;28;20440;-78
2021/10/26 06:18:39;;;;;;;2.70;1.38;;;18.20;77.40;;;;;;5049502;28;20130;-78
2021/10/26 06:21:04;;;;;;;2.83;1.38;;;18.20;77.40;;;;;;5049077;28;20033;-77
2021/10/26 06:23:30;;;;;;;7.28;1.42;;;18.20;77.50;;;;;;5049272;28;20033;-76
2021/10/26 06:25:59;;;;;;;6.63;1.35;;;18.30;77.50;;;;;;5048754;28;20036;-80
2021/10/26 06:28:25;;;;;;;2.58;1.15;;;18.30;77.70;;;;;;5049331;28;20428;-80
2021/10/26 06:30:51;;;;;;;3.92;1.20;;;18.30;78.50;;;;;;5048726;28;20021;-82
2021/10/26 06:33:17;;;;;;;4.80;1.65;;;18.30;77.70;;;;;;5049826;28;20017;-82
2021/10/26 06:35:42;;;;;;;2.88;1.40;;;18.30;77.70;;;;;;5040858;28;20060;-87
2021/10/26 06:38:08;;;;;;;4.53;2.67;;;18.40;77.70;;;;;;5037104;28;20104;-88
2021/10/26 06:40:34;;;;;;;11.57;4.28;;;18.40;77.80;;;;;;5044045;28;20397;-88
2021/10/26 06:43:00;;;;;;;9.18;4.57;;;18.40;77.70;;;;;;5045303;28;20021;-83
2021/10/26 06:45:26;;;;;;;6.45;4.75;;;18.40;77.80;;;;;;5036858;28;20101;-88
2021/10/26 06:47:52;;;;;;;8.27;6.82;;;18.40;78.40;;;;;;5046466;28;20082;-89
2021/10/26 06:50:18;;;;;;;13.73;5.60;;;18.40;78.80;;;;;;5048045;28;20500;-87
2021/10/26 06:52:45;;;;;;;9.10;6.35;;;18.40;79.40;;;;;;5047558;28;20458;-87
2021/10/26 06:55:16;;;;;;;10.45;4.40;;;18.50;79.30;;;;;;5035578;28;20021;-85
2021/10/26 06:57:45;;;;;;;9.98;5.25;;;18.50;79.30;;;;;;5036244;28;20097;-86
2021/10/26 07:00:11;;;;;;;8.15;4.90;;;18.40;79.20;;;;;;5036097;28;20462;-86
2021/10/26 07:02:50;;;;;;;9.85;4.90;;;18.40;79.20;;;;;;5038773;28;20392;-86
2021/10/26 07:05:25;;;;;;;7.80;4.22;;;18.40;79.10;;;;;;5036056;28;20052;-85
2021/10/26 07:07:51;;;;;;;9.18;4.30;;;18.40;79.20;;;;;;5036628;28;20025;-83
2021/10/26 07:10:18;;;;;;;9.27;4.85;;;18.40;79.10;;;;;;5037419;28;20557;-87
2021/10/26 07:12:44;;;;;;;11.13;4.32;;;18.40;79.10;;;;;;5035541;28;20017;-85
2021/10/26 07:15:11;;;;;;;6.45;3.50;;;18.40;79.10;;;;;;5036000;28;20499;-86
2021/10/26 07:17:38;;;;;;;8.60;3.45;;;18.40;79.10;;;;;;5037906;28;20019;-87
2021/10/26 07:20:07;;;;;;;6.57;4.07;;;18.40;79.00;;;;;;5036120;28;20018;-86
2021/10/26 07:22:33;;;;;;;6.10;3.83;;;18.40;78.90;;;;;;5035791;28;20552;-86
2021/10/26 07:25:04;;;;;;;7.72;3.90;;;18.40;78.90;;;;;;5036188;28;20110;-86
2021/10/26 07:27:29;;;;;;;11.32;3.47;;;18.40;78.90;;;;;;5037374;28;20048;-84
2021/10/26 07:29:55;;;;;;;5.85;3.60;;;18.40;78.90;;;;;;5035205;28;20486;-84
2021/10/26 07:32:21;;;;;;;7.60;3.33;;;18.40;79.20;;;;;;5036201;28;20025;-87
2021/10/26 07:34:48;;;;;;;7.88;3.83;;;18.30;79.10;;;;;;5037059;28;20025;-86
2021/10/26 07:37:15;;;;;;;8.07;3.38;;;18.30;78.80;;;;;;5035291;28;20103;-86
2021/10/26 07:42:12;;;;;;;5.95;3.00;;;18.30;78.70;;;;;;5037076;28;20041;-86
2021/10/26 07:44:38;;;;;;;6.32;3.22;;;18.30;78.70;;;;;;5035526;28;20036;-85
2021/10/26 07:47:04;;;;;;;6.30;3.10;;;18.30;78.60;;;;;;5036400;28;20021;-86
2021/10/26 07:49:30;;;;;;;7.10;2.90;;;18.30;78.50;;;;;;5037017;28;20501;-86
2021/10/26 07:51:58;;;;;;;7.78;3.88;;;18.20;78.40;;;;;;5035342;28;20100;-87
2021/10/26 07:54:23;;;;;;;6.97;2.90;;;18.20;78.30;;;;;;5036613;28;20061;-85
2021/10/26 07:56:50;;;;;;;6.63;3.00;;;18.20;78.20;;;;;;5037099;28;20017;-86
2021/10/26 07:59:16;;;;;;;5.53;2.58;;;18.20;78.20;;;;;;5035505;28;20061;-86
2021/10/26 08:01:45;;;;;;;6.68;2.97;;;18.20;78.20;;;;;;5035545;28;20108;-86
2021/10/26 08:04:11;;;;;;;7.28;2.85;;;18.20;78.00;;;;;;5039901;28;20128;-86
2021/10/26 08:06:39;;;;;;;8.20;3.70;;;18.20;78.00;;;;;;5047847;28;20459;-86
2021/10/26 08:09:05;;;;;;;4.75;3.05;;;18.10;78.00;;;;;;5048432;28;20021;-86
2021/10/26 08:11:32;;;;;;;5.95;3.08;;;18.10;77.90;;;;;;5048463;28;20025;-87
2021/10/26 08:13:58;;;;;;;5.15;2.65;;;18.10;77.90;;;;;;5050980;28;20029;-86
2021/10/26 08:16:24;;;;;;;4.47;2.67;;;18.10;77.90;;;;;;5051109;28;20032;-87
2021/10/26 08:18:50;;;;;;;5.57;3.15;;;18.10;77.80;;;;;;5051475;28;20054;-87
2021/10/26 08:21:15;;;;;;;6.32;3.63;;;18.10;77.80;;;;;;5050915;28;20039;-86
2021/10/26 08:23:42;;;;;;;5.10;2.85;;;18.10;77.80;;;;;;5051195;28;20029;-86
2021/10/26 08:26:13;;;;;;;6.50;2.20;;;18.10;77.70;;;;;;5049539;28;20116;-87
2021/10/26 08:28:38;;;;;;;6.25;3.63;;;18.10;77.70;;;;;;5046505;28;20021;-87
2021/10/26 08:31:08;;;;;;;7.03;2.92;;;18.10;77.70;;;;;;5039108;28;20105;-86
2021/10/26 08:35:59;;;;;;;5.68;2.78;;;18.10;77.60;;;;;;5034394;28;20504;-87
2021/10/26 08:38:25;;;;;;;5.78;2.58;;;18.00;77.50;;;;;;5034160;28;20040;-87
2021/10/26 08:40:51;;;;;;;7.43;2.55;;;18.10;77.50;;;;;;5029740;28;20029;-86
2021/10/26 08:43:26;;;;;;;6.88;2.50;;;18.00;77.30;;;;;;5047672;28;20032;-87
2021/10/26 08:45:53;;;;;;;7.45;2.38;;;18.00;77.30;;;;;;5043973;28;20388;-86
2021/10/26 08:48:21;;;;;;;4.97;2.30;;;18.00;77.20;;;;;;5034392;28;20038;-86
2021/10/26 08:50:53;;;;;;;5.50;2.65;;;18.00;77.20;;;;;;5038535;28;20025;-87
2021/10/26 08:53:20;;;;;;;6.15;2.47;;;18.00;77.10;;;;;;5033448;28;20033;-86
2021/10/26 08:55:55;;;;;;;5.18;1.95;;;18.10;77.20;;;;;;5045606;28;20032;-91
2021/10/26 08:58:23;;;;;;;4.97;2.63;;;18.00;77.10;;;;;;5038866;28;20035;-88
2021/10/26 09:00:50;;;;;;;6.10;2.50;;;18.00;77.20;;;;;;5035938;28;20133;-92
2021/10/26 09:03:21;;;;;;;6.82;2.85;;;18.00;77.30;;;;;;5037597;28;20074;-92
2021/10/26 09:05:52;;;;;;;7.53;2.80;;;18.00;78.00;;;;;;5039071;28;20028;-89
2021/10/26 09:08:28;;;;;;;3.70;2.03;;;18.00;78.60;;;;;;5038608;28;20018;-89
2021/10/26 09:10:57;;;;;;;7.00;2.63;;;18.00;78.60;;;;;;5039687;28;20030;-90
2021/10/26 09:19:27;;;;;;;4.68;2.33;;;18.00;78.20;;;;;;5045210;28;20040;-89
2021/10/26 09:22:01;;;;;;;3.53;2.13;;;18.00;78.80;;;;;;5050286;28;20061;-90
2021/10/26 09:24:28;;;;;;;5.32;2.67;;;18.00;78.00;;;;;;5049522;28;20021;-90
2021/10/26 09:27:00;;;;;;;6.90;2.38;;;18.00;77.90;;;;;;5043015;28;20061;-90
2021/10/26 09:29:43;;;;;;;5.63;2.28;;;18.00;77.70;;;;;;5037136;28;20162;-90
2021/10/26 09:32:23;;;;;;;5.88;2.40;;;18.00;77.60;;;;;;5042330;28;20177;-89
2021/10/26 09:34:49;;;;;;;4.00;2.30;;;18.00;77.60;;;;;;5048773;28;20029;-88
2021/10/26 09:37:16;;;;;;;6.10;2.15;;;18.10;77.60;;;;;;5045833;28;20357;-89
2021/10/26 09:39:56;;;;;;;5.28;2.60;;;18.10;77.50;;;;;;5039642;28;20181;-89
2021/10/26 09:42:22;;;;;;;6.47;2.60;;;18.10;77.40;;;;;;5048821;28;20492;-91
2021/10/26 09:44:51;;;;;;;4.70;2.05;;;18.10;77.40;;;;;;5049963;28;20065;-89
2021/10/26 09:47:23;;;;;;;8.40;2.63;;;18.10;77.40;;;;;;5048767;28;20165;-89
2021/10/26 09:49:55;;;;;;;5.50;2.30;;;18.10;77.30;;;;;;5040259;28;20493;-90
2021/10/26 09:52:28;;;;;;;4.15;2.20;;;18.10;77.20;;;;;;5049979;28;20051;-87
2021/10/26 09:55:11;;;;;;;5.07;2.03;;;18.10;77.20;;;;;;5047607;28;20018;-90
2021/10/26 09:57:38;;;;;;;3.55;2.13;;;18.10;77.30;;;;;;5033321;28;20029;-90
2021/10/26 10:00:06;;;;;;;3.45;1.70;;;18.10;77.10;;;;;;5031782;28;20017;-90
2021/10/26 10:02:33;;;;;;;6.35;2.92;;;18.10;77.10;;;;;;5044723;28;20029;-92
2021/10/26 10:04:59;;;;;;;5.35;2.38;;;18.10;77.20;;;;;;5046902;28;20029;-89
2021/10/26 10:07:31;;;;;;;4.00;2.13;;;18.20;77.20;;;;;;5036702;28;20025;-89
2021/10/26 10:10:10;;;;;;;4.50;2.03;;;18.20;77.20;;;;;;5038815;28;20515;-89
2021/10/26 10:12:40;;;;;;;4.10;2.10;;;18.30;77.20;;;;;;5048207;28;20029;-89
2021/10/26 10:15:08;;;;;;;3.33;1.65;;;18.30;77.10;;;;;;5036367;28;20029;-88
2021/10/26 10:17:36;;;;;;;4.57;2.00;;;18.40;77.10;;;;;;5028227;28;20034;-88
2021/10/26 10:20:05;;;;;;;3.38;1.85;;;18.40;77.00;;;;;;5033658;28;20027;-87
2021/10/26 10:22:32;;;;;;;6.32;2.25;;;18.50;77.00;;;;;;5038703;28;20094;-87
2021/10/26 10:25:03;;;;;;;5.25;1.90;;;18.60;76.80;;;;;;5040537;27;20025;-90
2021/10/26 10:27:31;;;;;;;3.33;1.70;;;18.60;76.80;;;;;;5048610;28;20134;-87
2021/10/26 10:29:58;;;;;;;3.80;1.60;;;18.60;76.60;;;;;;5041195;28;20030;-87
2021/10/26 10:32:26;;;;;;;5.82;1.75;;;18.70;76.60;;;;;;5038288;28;20036;-87
2021/10/26 10:34:53;;;;;;;3.40;1.88;;;18.70;76.60;;;;;;5038333;28;20049;-90
2021/10/26 10:37:29;;;;;;;4.38;1.67;;;18.70;76.50;;;;;;5040567;28;20082;-91
2021/10/26 10:39:59;;;;;;;2.47;1.38;;;18.70;76.50;;;;;;5037563;28;20512;-91
2021/10/26 10:42:26;;;;;;;3.72;1.88;;;18.70;76.50;;;;;;5040481;28;20358;-90
2021/10/26 10:44:55;;;;;;;4.22;1.75;;;18.80;76.60;;;;;;5045296;28;20031;-79
2021/10/26 10:47:31;;;;;;;4.32;1.40;;;18.80;76.70;;;;;;5045612;28;20029;-80
2021/10/26 10:49:57;;;;;;;3.67;1.50;;;18.80;76.70;;;;;;5029344;28;20021;-85
2021/10/26 10:52:34;;;;;;;6.78;1.40;;;18.90;76.80;;;;;;5029091;28;20026;-81
2021/10/26 10:55:20;;;;;;;6.45;1.85;;;19.00;76.70;;;;;;5041563;28;20025;-84
2021/10/26 10:57:46;;;;;;;10.35;2.03;;;19.10;76.60;;;;;;5048965;28;20068;-90
2021/10/26 11:00:18;;;;;;;10.55;2.10;;;19.10;76.90;;;;;;5035145;28;20021;-91
2021/10/26 11:02:46;;;;;;;5.50;1.30;;;19.20;76.90;;;;;;5033191;28;20036;-82
2021/10/26 11:05:30;;;;;;;6.13;2.45;;;19.20;77.50;;;;;;5031698;28;20025;-92
2021/10/26 11:07:56;;;;;;;6.15;1.83;;;19.30;77.90;;;;;;5038163;28;20107;-85
2021/10/26 11:10:22;;;;;;;7.22;2.08;;;19.30;78.40;;;;;;5039165;28;20026;-80
2021/10/26 11:12:49;;;;;;;5.95;2.00;;;19.40;78.80;;;;;;5034978;28;20108;-82
2021/10/26 11:15:44;;;;;;;4.22;2.03;;;19.50;78.90;;;;;;5037995;28;20029;-80
2021/10/26 11:18:09;;;;;;;6.30;2.47;;;19.60;78.80;;;;;;5041599;28;20477;-80
2021/10/26 11:20:38;;;;;;;11.07;3.10;;;19.70;78.70;;;;;;5038398;28;20040;-87
2021/10/26 11:23:08;;;;;;;15.20;3.92;;;20.00;78.30;;;;;;5035193;28;20100;-81
2021/10/26 11:25:39;;;;;;;16.92;4.05;;;20.40;77.90;;;;;;5034520;28;20029;-81
2021/10/26 11:28:17;;;;;;;23.25;5.38;;;21.10;75.30;;;;;;5042634;28;20032;-81
2021/10/26 11:30:43;;;;;;;23.63;5.75;;;21.70;73.20;;;;;;5033566;28;20077;-81
2021/10/26 11:33:15;;;;;;;21.33;6.18;;;21.80;72.10;;;;;;5037913;28;20488;-83
2021/10/26 11:35:52;;;;;;;20.55;5.28;;;21.70;72.20;;;;;;5040603;28;20036;-82
2021/10/26 11:38:23;;;;;;;26.10;6.65;;;21.80;72.10;;;;;;5031542;28;20026;-79
2021/10/26 11:41:00;;;;;;;19.50;5.78;;;21.70;72.30;;;;;;5047526;28;20051;-82
2021/10/26 11:43:30;;;;;;;24.73;5.85;;;21.90;71.80;;;;;;5039808;28;20021;-80
2021/10/26 11:46:02;;;;;;;16.85;4.53;;;22.00;70.50;;;;;;5050005;27;20064;-80
2021/10/26 11:48:46;;;;;;;18.80;5.57;;;22.20;70.80;;;;;;5034528;28;20024;-83
2021/10/26 11:51:24;;;;;;;19.58;4.93;;;22.10;70.10;;;;;;5039260;28;20473;-82
2021/10/26 11:53:55;;;;;;;17.83;4.47;;;22.00;70.60;;;;;;5052775;28;20124;-87
2021/10/26 11:56:26;;;;;;;17.67;4.78;;;21.90;70.10;;;;;;5108660;27;20126;-81
2021/10/26 11:59:03;;;;;;;17.65;4.53;;;21.80;70.60;;;;;;5041129;28;20060;-89
2021/10/26 12:01:34;;;;;;;11.63;3.10;;;21.60;71.10;;;;;;5041400;28;20049;-82
2021/10/26 12:04:13;;;;;;;15.73;4.50;;;21.40;71.70;;;;;;5036628;28;20524;-83
2021/10/26 12:06:38;;;;;;;10.60;3.95;;;21.30;72.00;;;;;;5035848;28;20045;-84
2021/10/26 12:09:10;;;;;;;13.65;3.63;;;21.50;71.80;;;;;;5038796;28;20014;-83
2021/10/26 12:11:36;;;;;;;14.10;4.28;;;21.80;70.50;;;;;;5052459;27;20404;-83
2021/10/26 12:14:22;;;;;;;12.65;3.42;;;22.20;70.50;;;;;;5048676;28;20029;-82
2021/10/26 12:17:12;;;;;;;13.88;3.22;;;22.10;69.40;;;;;;5060091;28;20036;-86
2021/10/26 12:19:41;;;;;;;13.20;3.95;;;22.20;69.10;;;;;;5051890;28;20411;-89
2021/10/26 12:22:11;;;;;;;15.27;3.90;;;22.30;68.70;;;;;;5034604;28;20085;-92
2021/10/26 12:24:37;;;;;;;12.30;3.80;;;22.40;68.70;;;;;;5037913;28;20030;-89
2021/10/26 12:27:06;;;;;;;10.23;3.65;;;22.50;67.70;;;;;;5044403;28;20039;-87
2021/10/26 12:29:37;;;;;;;11.20;3.17;;;22.60;67.90;;;;;;5040599;28;20024;-89
2021/10/26 12:32:06;;;;;;;10.93;2.88;;;23.50;65.90;;;;;;5041630;28;20018;-89
2021/10/26 12:34:50;;;;;;;9.48;3.35;;;24.30;63.10;;;;;;5039774;28;20082;-85
2021/10/26 12:37:30;;;;;;;11.63;2.75;;;23.90;62.60;;;;;;5045581;28;20112;-84
2021/10/26 12:39:56;;;;;;;9.40;2.80;;;23.20;64.80;;;;;;5042101;28;20392;-83
2021/10/26 12:42:40;;;;;;;8.82;2.85;;;22.70;66.30;;;;;;5043705;28;20148;-83
2021/10/26 12:45:08;;;;;;;7.38;2.92;;;22.40;67.30;;;;;;5041348;28;20036;-83
2021/10/26 12:48:00;;;;;;;9.93;3.58;;;22.30;67.90;;;;;;5044252;28;20017;-82
2021/10/26 12:50:36;;;;;;;9.93;2.63;;;22.10;68.60;;;;;;5042986;28;20485;-82
2021/10/26 12:53:13;;;;;;;11.65;3.33;;;22.00;68.90;;;;;;5039846;27;20029;-87
2021/10/26 12:55:43;;;;;;;8.95;2.28;;;22.00;68.90;;;;;;5038801;28;20057;-82
2021/10/26 12:58:35;;;;;;;10.15;2.72;;;21.90;69.10;;;;;;5038370;28;20037;-85
2021/10/26 13:01:03;;;;;;;7.63;2.50;;;21.80;69.40;;;;;;5038745;28;20022;-87